Página principal
METAR-TAF:

METAR-TAF

Aeroportos :

Yap, Micronésia

latitude: 09-29N, longitude: 138-05E, altura: 28 m

Observação actual do tempo

O boletim foi feito há 4 horas e 39 minutos, às 23:53 UTC
Vento 11 kt de nordeste
Temperatura 29°C
Humidade 74%
Pressão 1009 hPa
Visibilidade: 19.3 km
Nuvens dispersasa uma altura de 1600 ft
Nuvens dispersasa uma altura de 13000 ft
Encobertoa uma altura de 30000 ft

METAR: PTYA 212353Z 05011KT 12SM SCT016 SCT130 OVC300 29/24 A2979 RMK SLP090 8/171 T02910243 10291 20269 52019

Hora: 14:32 (04:32 UTC)

Previsão

O boletim foi feito há 5 horas e 7 minutos, às 23:25 UTC
Previsão válida de 22 às 00 UTC a 22 às 24 UTC
Vento 11 kt de es-nordeste com rajadas de 20 kt
Visibilidade: 10 km
Nuvens dispersasa uma altura de 1600 ft
Nuvens fragmentadasa uma altura de 13000 ft
aguaceiros nas vizinhanças

TAF: PTYA 212325Z 2200/2224 06011G20KT P6SM VCSH SCT016 BKN130

Observações e previsões do tempo de mais de 4000 aeroportos (mensagens METAR e TAF).

As estações disponíveis são os pontos amarelos e vermelhos sobre o mapa.

Mova o rato sobre o mapa para ver o nome da estação.

Depois clique no ponto para visualizar as observações e previsões meteorológicas.

Para alterar o mapa : clique nos botões verdes com uma cruz preta para aumentar o zoom; no botão verde com uma pitada de zoom; ou nas setas verdes para mapas adjacentes.


METAR-TAF: